createdAt,value
2023-04-19T00:00:21.452Z,13.20
2023-04-19T00:00:57.882Z,13.10
2023-04-19T00:01:30.675Z,13.10
2023-04-19T00:02:09.059Z,13.10
2023-04-19T00:02:44.700Z,13.10
2023-04-19T00:03:25.842Z,13.10
2023-04-19T00:03:59.795Z,13.10
2023-04-19T00:04:33.967Z,13.00
2023-04-19T00:05:07.864Z,13.00
2023-04-19T00:05:41.745Z,13.00
2023-04-19T00:06:17.517Z,13.00
2023-04-19T00:06:53.070Z,13.00
2023-04-19T00:07:25.742Z,13.00
2023-04-19T00:07:59.409Z,13.00
2023-04-19T00:08:32.261Z,13.00
2023-04-19T00:09:04.982Z,13.00
2023-04-19T00:09:39.805Z,13.00
2023-04-19T00:10:12.373Z,13.00
2023-04-19T00:10:54.219Z,13.00
2023-04-19T00:11:30.025Z,13.00
2023-04-19T00:12:03.009Z,13.00
2023-04-19T00:12:38.289Z,13.00
2023-04-19T00:13:13.571Z,13.00
2023-04-19T00:13:46.217Z,13.10
2023-04-19T00:14:21.779Z,13.10
2023-04-19T00:14:55.591Z,13.00
2023-04-19T00:15:28.291Z,13.00
2023-04-19T00:16:03.488Z,13.00
2023-04-19T00:16:37.169Z,13.10
2023-04-19T00:17:12.394Z,13.00
2023-04-19T00:17:45.140Z,13.10
2023-04-19T00:18:19.107Z,13.10
2023-04-19T00:18:53.219Z,13.10
2023-04-19T00:19:26.273Z,13.00
2023-04-19T00:20:00.050Z,13.10
2023-04-19T00:20:33.135Z,13.10
2023-04-19T00:21:06.464Z,13.00
2023-04-19T00:21:42.696Z,13.10
2023-04-19T00:22:15.751Z,13.10
2023-04-19T00:22:51.320Z,13.10
2023-04-19T00:23:25.994Z,13.10
2023-04-19T00:23:58.739Z,13.10
2023-04-19T00:24:31.808Z,13.10
2023-04-19T00:25:06.158Z,13.10
2023-04-19T00:25:39.165Z,13.10
2023-04-19T00:26:11.754Z,13.10
2023-04-19T00:26:46.532Z,13.10
2023-04-19T00:27:19.422Z,13.00
2023-04-19T00:27:52.091Z,13.10
2023-04-19T00:28:32.225Z,13.00
2023-04-19T00:29:04.873Z,13.00
2023-04-19T00:29:39.355Z,13.00
2023-04-19T00:30:14.237Z,13.00
2023-04-19T00:30:46.850Z,13.00
2023-04-19T00:31:19.666Z,12.90
2023-04-19T00:31:54.225Z,12.90
2023-04-19T00:32:27.253Z,12.90
2023-04-19T00:32:59.967Z,12.90
2023-04-19T00:33:37.425Z,12.90
2023-04-19T00:34:13.518Z,12.90
2023-04-19T00:34:46.315Z,12.90
2023-04-19T00:35:19.202Z,12.90
2023-04-19T00:35:56.035Z,12.90
2023-04-19T00:36:28.785Z,12.90
2023-04-19T00:37:02.095Z,12.90
2023-04-19T00:37:35.950Z,13.00
2023-04-19T00:38:10.188Z,12.90
2023-04-19T00:38:45.222Z,13.00
2023-04-19T00:39:18.811Z,13.00
2023-04-19T00:39:51.454Z,13.00
2023-04-19T00:40:24.863Z,13.00
2023-04-19T00:41:00.872Z,13.00
2023-04-19T00:41:33.859Z,13.00
2023-04-19T00:42:06.692Z,13.00
2023-04-19T00:42:46.952Z,13.00
2023-04-19T00:43:22.048Z,13.00
2023-04-19T00:43:57.065Z,13.00
2023-04-19T00:44:30.999Z,13.00
2023-04-19T00:45:05.612Z,13.00
2023-04-19T00:45:38.571Z,13.00
2023-04-19T00:46:15.941Z,13.00
2023-04-19T00:46:50.973Z,13.00
2023-04-19T00:47:23.656Z,13.00
2023-04-19T00:47:58.956Z,13.00
2023-04-19T00:48:39.224Z,13.00
2023-04-19T00:49:11.993Z,13.00
2023-04-19T00:49:47.769Z,13.00
2023-04-19T00:50:22.864Z,13.00
2023-04-19T00:50:55.894Z,13.00
2023-04-19T00:51:29.986Z,13.00
2023-04-19T00:52:02.715Z,13.00
2023-04-19T00:52:36.828Z,13.00
2023-04-19T00:53:12.035Z,13.00
2023-04-19T00:53:48.177Z,12.90
2023-04-19T00:54:25.123Z,12.90
2023-04-19T00:55:00.639Z,12.90
2023-04-19T00:55:34.369Z,12.90
2023-04-19T00:56:07.464Z,13.00
2023-04-19T00:56:42.674Z,13.00
2023-04-19T00:57:16.682Z,13.00
2023-04-19T00:57:52.241Z,13.00
2023-04-19T00:58:28.501Z,13.00
2023-04-19T00:59:02.613Z,13.00
2023-04-19T00:59:37.555Z,13.00
2023-04-19T01:00:11.206Z,13.00
2023-04-19T01:00:45.868Z,13.00
2023-04-19T01:01:21.425Z,13.00
2023-04-19T01:01:55.672Z,13.00
2023-04-19T01:02:32.620Z,13.00
2023-04-19T01:03:05.456Z,13.00
2023-04-19T01:03:38.357Z,13.10
2023-04-19T01:04:12.957Z,13.00
2023-04-19T01:04:45.847Z,13.10
2023-04-19T01:05:19.833Z,13.00
2023-04-19T01:05:53.385Z,13.10
2023-04-19T01:06:28.056Z,13.10
2023-04-19T01:07:01.690Z,13.10
2023-04-19T01:07:36.047Z,13.10
2023-04-19T01:08:08.748Z,13.10
2023-04-19T01:08:41.537Z,13.10
2023-04-19T01:09:15.304Z,13.10
2023-04-19T01:09:48.099Z,13.10
2023-04-19T01:10:20.708Z,13.10
2023-04-19T01:10:59.587Z,13.10
2023-04-19T01:11:32.354Z,13.10
2023-04-19T01:12:05.422Z,13.10
2023-04-19T01:12:39.146Z,13.10
2023-04-19T01:13:12.062Z,13.00
2023-04-19T01:13:47.509Z,13.10
2023-04-19T01:14:25.279Z,13.00
2023-04-19T01:14:59.065Z,13.00
2023-04-19T01:15:32.221Z,13.10
2023-04-19T01:16:06.498Z,13.00
2023-04-19T01:16:39.372Z,13.00
2023-04-19T01:17:13.739Z,13.00
2023-04-19T01:17:47.359Z,13.00
2023-04-19T01:18:22.070Z,13.00
2023-04-19T01:18:57.046Z,13.00
2023-04-19T01:19:29.740Z,13.00
2023-04-19T01:20:06.687Z,13.10
2023-04-19T01:20:39.499Z,13.10
2023-04-19T01:21:12.972Z,13.10
2023-04-19T01:21:46.517Z,13.10
2023-04-19T01:22:24.030Z,13.10
2023-04-19T01:22:56.574Z,13.10
2023-04-19T01:23:29.468Z,13.10
2023-04-19T01:24:03.342Z,13.10
2023-04-19T01:24:36.154Z,13.10
2023-04-19T01:25:09.811Z,13.10
2023-04-19T01:25:46.422Z,13.10
2023-04-19T01:26:19.745Z,13.10
2023-04-19T01:26:52.354Z,13.10
2023-04-19T01:27:26.291Z,13.10
2023-04-19T01:28:00.045Z,13.10
2023-04-19T01:28:33.401Z,13.10
2023-04-19T01:29:06.165Z,13.10
2023-04-19T01:29:38.834Z,13.10
2023-04-19T01:30:16.300Z,13.10
2023-04-19T01:30:51.105Z,13.00
2023-04-19T01:31:24.383Z,13.10
2023-04-19T01:31:58.112Z,13.10
2023-04-19T01:32:35.232Z,13.10
2023-04-19T01:33:08.932Z,13.10
2023-04-19T01:33:41.594Z,13.00
2023-04-19T01:34:15.300Z,13.10
2023-04-19T01:34:49.171Z,13.10
2023-04-19T01:35:22.848Z,13.00
2023-04-19T01:35:57.241Z,13.00
2023-04-19T01:36:33.070Z,13.00
2023-04-19T01:37:05.713Z,13.10
2023-04-19T01:37:42.014Z,13.00
2023-04-19T01:38:16.464Z,13.00
2023-04-19T01:38:49.983Z,13.00
2023-04-19T01:39:28.575Z,13.00
2023-04-19T01:40:05.229Z,13.00
2023-04-19T01:40:39.322Z,12.90
2023-04-19T01:41:11.934Z,12.90
2023-04-19T01:41:46.586Z,12.90
2023-04-19T01:42:20.211Z,12.90
2023-04-19T01:42:53.152Z,12.90
2023-04-19T01:43:25.912Z,12.90
2023-04-19T01:43:58.833Z,12.90
2023-04-19T01:44:32.408Z,12.90
2023-04-19T01:45:07.093Z,12.80
2023-04-19T01:45:41.817Z,12.90
2023-04-19T01:46:15.637Z,12.80
2023-04-19T01:46:48.260Z,12.80
2023-04-19T01:47:21.219Z,12.80
2023-04-19T01:47:57.295Z,12.80
2023-04-19T01:48:29.921Z,12.70
2023-04-19T01:49:02.896Z,12.70
2023-04-19T01:49:36.879Z,12.70
2023-04-19T01:50:10.213Z,12.70
2023-04-19T01:50:42.905Z,12.70
2023-04-19T01:51:18.294Z,12.60
2023-04-19T01:51:51.181Z,12.60
2023-04-19T01:52:23.812Z,12.60
2023-04-19T01:52:58.868Z,12.60
2023-04-19T06:09:21.517Z,23.80
2023-04-19T06:10:52.650Z,24.10
2023-04-19T06:12:12.852Z,24.80
2023-04-19T06:12:48.990Z,25.80
2023-04-19T06:13:23.300Z,26.00
2023-04-19T06:13:58.684Z,26.40
2023-04-19T06:14:33.550Z,26.80
2023-04-19T10:46:38.878Z,24.30
2023-04-19T10:47:48.777Z,24.10
2023-04-19T10:48:40.671Z,23.90
2023-04-19T10:49:15.539Z,23.80
2023-04-19T10:49:56.151Z,23.70
2023-04-19T10:50:31.303Z,23.70
2023-04-19T10:51:14.532Z,23.60
2023-04-19T10:51:53.919Z,23.60
2023-04-19T10:59:12.235Z,23.60
2023-04-19T11:33:49.957Z,23.40
2023-04-19T11:51:34.760Z,22.90
2023-04-19T11:52:10.556Z,22.30
2023-04-19T11:52:51.289Z,22.20
2023-04-19T11:53:28.143Z,22.10
2023-04-19T11:54:02.938Z,22.00
2023-04-19T11:55:21.022Z,22.00
2023-04-19T13:31:15.620Z,20.00
2023-04-19T13:31:50.823Z,19.90
2023-04-19T13:32:25.013Z,19.90
2023-04-19T13:33:01.732Z,19.80
2023-04-19T13:33:36.208Z,19.80
2023-04-19T13:34:10.133Z,19.70
2023-04-19T13:34:44.731Z,19.70
2023-04-19T13:35:19.222Z,19.70
2023-04-19T13:35:54.968Z,19.70
2023-04-19T13:36:29.640Z,19.70
2023-04-19T13:37:04.662Z,19.70
2023-04-19T13:37:41.071Z,19.60
2023-04-19T13:38:16.367Z,19.60
2023-04-19T13:38:50.365Z,19.60
2023-04-19T13:39:26.275Z,19.50
2023-04-19T13:40:14.659Z,19.60
2023-04-19T13:40:51.566Z,19.50
2023-04-19T13:41:25.031Z,19.50
2023-04-19T13:42:00.880Z,19.50
2023-04-19T13:42:36.483Z,19.50
2023-04-19T13:43:12.685Z,19.50
2023-04-19T13:43:47.474Z,19.50
2023-04-19T13:44:21.968Z,19.50
2023-04-19T13:44:55.257Z,19.50
2023-04-19T13:45:29.119Z,19.50
2023-04-19T13:46:04.064Z,19.50
2023-04-19T13:46:40.340Z,19.50
2023-04-19T13:47:16.540Z,19.50
2023-04-19T13:47:52.069Z,19.50
2023-04-19T13:48:29.521Z,19.50
2023-04-19T13:49:04.271Z,19.50
2023-04-19T13:49:39.432Z,19.40
2023-04-19T13:50:16.084Z,19.40
2023-04-19T13:50:53.131Z,19.40
2023-04-19T13:51:38.730Z,19.40
2023-04-19T13:52:22.738Z,19.40
2023-04-19T13:52:56.283Z,19.40
2023-04-19T13:53:31.411Z,19.40
2023-04-19T13:54:06.749Z,19.40
2023-04-19T13:54:40.869Z,19.40
2023-04-19T13:55:16.770Z,19.40
2023-04-19T13:55:51.969Z,19.40
2023-04-19T13:56:27.091Z,19.40
2023-04-19T13:57:02.170Z,19.40
2023-04-19T13:57:37.227Z,19.40
2023-04-19T13:58:15.165Z,19.40
2023-04-19T13:58:48.549Z,19.40
2023-04-19T13:59:23.581Z,19.40
2023-04-19T13:59:57.986Z,19.40
2023-04-19T17:12:10.048Z,17.20
2023-04-19T17:12:47.182Z,17.20
2023-04-19T17:13:22.491Z,17.10
2023-04-19T17:13:56.746Z,17.10
2023-04-19T17:14:59.165Z,17.10
2023-04-19T17:15:34.054Z,17.10
2023-04-19T17:16:09.637Z,17.10
2023-04-19T17:16:44.505Z,17.10
2023-04-19T17:17:21.291Z,17.10
2023-04-19T17:17:57.239Z,17.00
2023-04-19T17:18:32.257Z,17.10
2023-04-19T17:19:06.233Z,17.00
2023-04-19T17:19:40.784Z,17.00
2023-04-19T17:20:16.181Z,17.00
2023-04-19T17:20:50.861Z,17.00
2023-04-19T17:21:28.385Z,17.00
2023-04-19T17:22:06.265Z,17.00
2023-04-19T17:22:40.693Z,17.00
2023-04-19T17:23:15.149Z,17.00
2023-04-19T17:23:52.915Z,16.90
